Time;durP1;ratioP1;P1;durP2;ratioP2;P2;SDS_P1;SDS_P2;PMS_P1;PMS_P2;Temp;Humidity;BMP_temperature;BMP_pressure;BME280_temperature;BME280_humidity;BME280_pressure;Samples;Min_cycle;Max_cycle;Signal;HPM_P1;HPM_P2
2021/11/03 00:00:13;;;;;;;13.70;9.63;;;5.30;99.90;;;;;;5116904;27;39820;-74
2021/11/03 00:02:41;;;;;;;13.40;9.97;;;5.40;99.90;;;;;;5136258;27;38451;-74
2021/11/03 00:05:10;;;;;;;18.57;12.30;;;5.40;99.90;;;;;;5131254;27;36854;-74
2021/11/03 00:07:36;;;;;;;14.63;10.77;;;5.30;99.90;;;;;;5132973;27;39398;-74
2021/11/03 00:10:04;;;;;;;14.83;10.17;;;5.20;99.90;;;;;;5140151;27;39029;-74
2021/11/03 00:12:31;;;;;;;18.53;12.47;;;5.30;99.90;;;;;;5136220;27;46606;-74
2021/11/03 00:14:58;;;;;;;15.17;10.60;;;5.20;99.90;;;;;;5132988;27;38398;-73
2021/11/03 00:17:25;;;;;;;14.33;10.27;;;5.20;99.90;;;;;;5136555;27;39529;-74
2021/11/03 00:19:52;;;;;;;14.60;10.50;;;5.30;99.90;;;;;;5136550;27;38380;-73
2021/11/03 00:22:18;;;;;;;12.83;10.40;;;5.30;99.90;;;;;;5117711;27;38784;-74
2021/11/03 00:24:45;;;;;;;15.90;11.30;;;5.20;99.90;;;;;;5131522;27;39130;-74
2021/11/03 00:27:12;;;;;;;15.37;11.10;;;5.20;99.90;;;;;;5138456;27;38783;-74
2021/11/03 00:29:39;;;;;;;14.40;9.67;;;5.20;99.90;;;;;;5117564;27;39626;-74
2021/11/03 00:32:08;;;;;;;16.87;11.70;;;5.20;99.90;;;;;;5135696;27;38713;-74
2021/11/03 00:34:35;;;;;;;17.43;10.60;;;5.10;99.90;;;;;;5133278;27;38366;-74
2021/11/03 00:37:01;;;;;;;15.30;10.70;;;5.20;99.90;;;;;;5137120;27;39362;-74
2021/11/03 00:39:27;;;;;;;16.43;11.33;;;5.20;99.90;;;;;;5132661;27;48426;-74
2021/11/03 00:41:54;;;;;;;12.57;9.47;;;5.20;99.90;;;;;;5127366;27;39025;-73
2021/11/03 00:44:21;;;;;;;13.13;10.80;;;5.20;99.90;;;;;;5135018;27;39285;-74
2021/11/03 00:46:49;;;;;;;16.77;10.77;;;5.20;99.90;;;;;;5129023;27;39322;-73
2021/11/03 00:49:16;;;;;;;13.07;10.50;;;5.20;99.90;;;;;;5128488;27;39098;-73
2021/11/03 00:51:42;;;;;;;15.77;10.90;;;5.20;99.90;;;;;;5134174;27;39082;-74
2021/11/03 00:54:09;;;;;;;15.70;11.50;;;5.20;99.90;;;;;;5132088;27;38447;-73
2021/11/03 00:56:35;;;;;;;16.20;12.40;;;5.20;99.90;;;;;;5129212;27;38676;-73
2021/11/03 00:59:02;;;;;;;16.43;11.37;;;5.10;99.90;;;;;;5133482;27;38118;-73
2021/11/03 01:01:29;;;;;;;15.30;11.40;;;5.10;99.90;;;;;;5131753;27;38958;-74
2021/11/03 01:03:56;;;;;;;18.10;12.90;;;5.20;99.90;;;;;;5132955;27;38130;-74
2021/11/03 01:06:22;;;;;;;19.27;13.13;;;5.20;99.90;;;;;;5145755;27;37287;-74
2021/11/03 01:08:48;;;;;;;16.50;13.20;;;5.10;99.90;;;;;;5133573;27;39037;-73
2021/11/03 01:11:14;;;;;;;21.33;14.63;;;5.10;99.90;;;;;;5132658;27;37883;-74
2021/11/03 01:13:40;;;;;;;19.70;14.77;;;5.10;99.90;;;;;;5128284;27;36143;-73
2021/11/03 01:16:06;;;;;;;16.73;13.17;;;5.10;99.90;;;;;;5129354;27;38923;-73
2021/11/03 01:18:33;;;;;;;18.10;13.27;;;5.10;99.90;;;;;;5134882;27;38367;-73
2021/11/03 01:21:00;;;;;;;15.13;11.17;;;5.10;99.90;;;;;;5126566;27;38904;-73
2021/11/03 01:23:28;;;;;;;16.03;11.57;;;5.10;99.90;;;;;;5118227;27;38622;-73
2021/11/03 01:25:54;;;;;;;13.70;10.50;;;5.00;99.90;;;;;;5111526;27;38009;-74
2021/11/03 01:28:21;;;;;;;20.87;13.23;;;5.00;99.90;;;;;;5125790;27;39233;-74
2021/11/03 01:30:48;;;;;;;14.40;11.60;;;5.00;99.90;;;;;;5132314;27;37307;-74
2021/11/03 01:33:17;;;;;;;17.13;13.57;;;5.00;99.90;;;;;;5130561;27;38437;-74
2021/11/03 01:35:44;;;;;;;19.77;13.37;;;5.10;99.90;;;;;;5117732;27;39755;-74
2021/11/03 01:38:10;;;;;;;19.43;14.77;;;5.10;99.90;;;;;;5133185;27;38339;-74
2021/11/03 01:40:39;;;;;;;20.20;14.77;;;5.00;99.90;;;;;;5132652;27;38683;-73
2021/11/03 01:43:07;;;;;;;21.40;14.17;;;5.00;99.90;;;;;;5131173;27;37495;-74
2021/11/03 01:45:35;;;;;;;16.73;13.47;;;5.00;99.90;;;;;;5126792;27;38654;-73
2021/11/03 01:48:04;;;;;;;17.83;12.53;;;5.00;99.90;;;;;;5127944;27;39952;-73
2021/11/03 01:50:51;;;;;;;21.23;14.00;;;4.90;99.90;;;;;;5122104;27;48749;-73
2021/11/03 01:53:24;;;;;;;19.07;13.00;;;4.90;99.90;;;;;;5130398;27;38134;-73
2021/11/03 01:56:00;;;;;;;19.00;13.80;;;4.90;99.90;;;;;;5127282;27;40255;-73
2021/11/03 01:58:44;;;;;;;23.20;16.10;;;4.90;99.90;;;;;;5144718;27;40973;-73
2021/11/03 02:01:10;;;;;;;21.10;13.83;;;4.90;99.90;;;;;;5152803;27;37606;-74
2021/11/03 02:03:39;;;;;;;20.70;15.33;;;4.90;99.90;;;;;;5154035;27;37449;-74
2021/11/03 02:06:11;;;;;;;20.27;14.27;;;4.90;99.90;;;;;;5132888;27;40269;-74
2021/11/03 02:08:40;;;;;;;19.73;14.63;;;4.90;99.90;;;;;;5155095;27;38255;-74
2021/11/03 02:11:07;;;;;;;18.23;13.53;;;4.90;99.90;;;;;;5130824;27;37064;-75
2021/11/03 02:13:35;;;;;;;18.70;13.80;;;4.80;99.90;;;;;;5133086;27;38311;-75
2021/11/03 02:16:02;;;;;;;17.07;13.50;;;4.70;99.90;;;;;;5129358;27;39547;-75
2021/11/03 02:18:28;;;;;;;25.37;18.67;;;4.70;99.90;;;;;;5150845;27;38379;-74
2021/11/03 02:20:54;;;;;;;33.43;21.20;;;4.80;99.90;;;;;;5154712;27;38950;-74
2021/11/03 02:23:38;;;;;;;28.17;20.10;;;4.90;99.90;;;;;;5153630;27;36937;-74
2021/11/03 02:26:35;;;;;;;29.23;19.90;;;5.00;99.90;;;;;;5131389;27;38999;-74
2021/11/03 02:29:06;;;;;;;26.63;18.33;;;5.00;99.90;;;;;;5118814;27;38935;-74
2021/11/03 02:31:42;;;;;;;26.73;19.77;;;5.00;99.90;;;;;;5152761;27;38861;-74
2021/11/03 02:34:10;;;;;;;40.13;23.80;;;5.20;99.90;;;;;;5139481;27;38508;-73
2021/11/03 02:36:54;;;;;;;35.00;23.10;;;5.40;99.90;;;;;;5148398;27;39792;-74
2021/11/03 02:39:29;;;;;;;49.23;29.50;;;5.50;99.90;;;;;;5142359;27;38059;-73
2021/11/03 02:41:57;;;;;;;48.67;29.57;;;5.50;99.90;;;;;;5133711;27;38234;-74
2021/11/03 02:44:25;;;;;;;32.30;25.00;;;5.60;99.90;;;;;;5126299;27;37922;-74
2021/11/03 02:46:51;;;;;;;38.70;24.50;;;5.60;99.90;;;;;;5134219;27;38864;-74
2021/11/03 02:49:17;;;;;;;51.43;29.47;;;5.60;99.90;;;;;;5133239;27;38512;-75
2021/11/03 02:51:44;;;;;;;30.17;22.90;;;5.60;99.90;;;;;;5134017;27;37128;-73
2021/11/03 02:54:15;;;;;;;41.17;25.97;;;5.60;99.90;;;;;;5150898;27;36801;-74
2021/11/03 02:56:45;;;;;;;36.47;23.77;;;5.60;99.90;;;;;;5136319;27;40737;-74
2021/11/03 02:59:15;;;;;;;44.93;25.33;;;5.50;99.90;;;;;;5134683;27;37225;-74
2021/11/03 03:01:48;;;;;;;45.10;26.40;;;5.40;99.90;;;;;;5156047;27;39185;-74
2021/11/03 03:04:19;;;;;;;;;;;5.40;99.90;;;;;;5138028;27;37934;-74
2021/11/03 03:06:46;;;;;;;36.07;23.17;;;5.40;99.90;;;;;;5134819;27;38835;-75
2021/11/03 03:09:13;;;;;;;34.57;24.47;;;5.30;99.90;;;;;;5135619;27;37409;-74
2021/11/03 03:11:41;;;;;;;40.60;24.70;;;5.20;99.90;;;;;;5134412;27;39376;-74
2021/11/03 03:14:09;;;;;;;36.00;24.23;;;5.20;99.90;;;;;;5134531;27;36235;-74
2021/11/03 03:16:35;;;;;;;39.20;24.77;;;5.20;99.90;;;;;;5130669;27;39037;-74
2021/11/03 03:19:02;;;;;;;35.73;22.53;;;5.20;99.90;;;;;;5136326;27;39700;-74
2021/11/03 03:21:30;;;;;;;33.80;22.57;;;5.00;99.90;;;;;;5123806;27;38791;-73
2021/11/03 03:23:58;;;;;;;41.77;25.77;;;5.00;99.90;;;;;;5134096;27;37628;-74
2021/11/03 03:26:24;;;;;;;45.20;27.40;;;5.00;99.90;;;;;;5130570;27;39545;-73
2021/11/03 03:28:52;;;;;;;48.00;26.83;;;5.00;99.90;;;;;;5133988;27;38411;-74
2021/11/03 03:31:19;;;;;;;32.30;21.10;;;5.00;99.90;;;;;;5148535;27;40042;-73
2021/11/03 03:33:52;;;;;;;39.13;24.60;;;4.90;99.90;;;;;;5120842;27;36684;-73
2021/11/03 03:36:19;;;;;;;34.15;23.60;;;4.90;99.90;;;;;;5129741;27;38419;-74
2021/11/03 03:38:46;;;;;;;42.93;25.43;;;5.00;99.90;;;;;;5127384;27;37393;-74
2021/11/03 03:41:14;;;;;;;44.80;25.93;;;5.00;99.90;;;;;;5130706;27;38467;-74
2021/11/03 03:43:41;;;;;;;40.30;26.10;;;5.30;99.90;;;;;;5132200;27;37522;-74
2021/11/03 03:46:07;;;;;;;56.80;31.97;;;5.80;99.90;;;;;;5126744;27;39291;-74
2021/11/03 03:48:33;;;;;;;42.23;28.93;;;6.00;99.90;;;;;;5135134;27;38294;-73
2021/11/03 03:51:00;;;;;;;49.57;31.00;;;6.00;99.90;;;;;;5129267;27;37877;-74
2021/11/03 03:53:26;;;;;;;42.37;25.80;;;5.80;99.90;;;;;;5126182;27;37807;-74
2021/11/03 03:55:52;;;;;;;46.60;28.30;;;5.60;99.90;;;;;;5133567;27;38075;-74
2021/11/03 03:58:20;;;;;;;35.73;25.47;;;5.50;99.90;;;;;;5111917;27;38798;-74
2021/11/03 04:00:49;;;;;;;34.10;22.57;;;5.40;99.90;;;;;;5134336;27;40543;-74
2021/11/03 04:03:15;;;;;;;31.83;21.43;;;5.40;99.90;;;;;;5128823;27;37128;-73
2021/11/03 04:05:44;;;;;;;45.80;27.57;;;5.40;99.90;;;;;;5125997;27;37657;-73
2021/11/03 04:08:14;;;;;;;36.87;24.50;;;5.40;99.90;;;;;;5129358;27;39037;-74
2021/11/03 04:10:43;;;;;;;56.70;31.73;;;5.40;99.90;;;;;;5114171;27;37652;-73
2021/11/03 04:13:10;;;;;;;50.53;29.83;;;5.40;99.90;;;;;;5107475;27;37877;-73
2021/11/03 04:15:36;;;;;;;48.03;28.03;;;5.50;99.90;;;;;;5127419;27;41814;-74
2021/11/03 04:18:03;;;;;;;45.37;29.27;;;5.70;99.90;;;;;;5119708;27;37840;-74
2021/11/03 04:20:30;;;;;;;60.97;35.60;;;6.10;99.90;;;;;;5111815;27;38470;-74
2021/11/03 04:22:56;;;;;;;66.30;40.00;;;6.40;99.90;;;;;;5108982;27;38886;-74
2021/11/03 04:25:22;;;;;;;59.53;37.57;;;6.70;99.90;;;;;;5109267;27;40084;-74
2021/11/03 04:27:48;;;;;;;57.07;38.30;;;6.70;99.90;;;;;;5114222;27;36886;-73
2021/11/03 04:30:18;;;;;;;44.53;31.97;;;6.70;99.90;;;;;;5116061;27;39045;-74
2021/11/03 04:32:45;;;;;;;53.97;33.77;;;6.60;99.90;;;;;;5115370;27;37803;-73
2021/11/03 04:35:12;;;;;;;60.47;35.37;;;6.40;99.90;;;;;;5107564;27;39723;-74
2021/11/03 04:37:40;;;;;;;40.17;29.43;;;6.30;99.90;;;;;;5121809;27;39377;-73
2021/11/03 04:40:10;;;;;;;62.93;37.37;;;6.30;99.90;;;;;;5127941;27;37323;-74
2021/11/03 04:42:36;;;;;;;48.27;32.77;;;6.30;99.90;;;;;;5116185;27;37715;-74
2021/11/03 04:45:05;;;;;;;60.93;37.00;;;6.30;99.90;;;;;;5123825;27;39713;-73
2021/11/03 04:47:31;;;;;;;60.50;36.73;;;6.30;99.90;;;;;;5120387;27;47649;-73
2021/11/03 04:49:58;;;;;;;65.67;37.70;;;6.30;99.90;;;;;;5108924;27;37324;-73
2021/11/03 04:52:25;;;;;;;55.83;36.63;;;6.40;99.90;;;;;;5107392;27;36549;-73
2021/11/03 04:54:53;;;;;;;54.53;31.10;;;6.50;99.90;;;;;;5129844;27;39557;-74
2021/11/03 04:57:20;;;;;;;63.47;30.70;;;6.50;99.90;;;;;;5130775;27;39404;-74
2021/11/03 04:59:48;;;;;;;55.40;30.60;;;6.50;99.90;;;;;;5129378;27;40020;-74
2021/11/03 05:02:14;;;;;;;194.80;54.23;;;6.50;99.90;;;;;;5120072;27;36627;-74
2021/11/03 05:04:40;;;;;;;57.00;32.63;;;6.50;99.90;;;;;;5120274;27;38824;-74
2021/11/03 05:07:07;;;;;;;34.37;26.87;;;6.60;99.90;;;;;;5121695;27;37753;-73
2021/11/03 05:09:34;;;;;;;32.43;23.43;;;6.50;99.90;;;;;;5128506;27;37912;-74
2021/11/03 05:12:00;;;;;;;38.13;28.73;;;6.60;99.90;;;;;;5131406;27;37487;-73
2021/11/03 05:14:26;;;;;;;59.97;33.23;;;6.60;99.90;;;;;;5132108;27;38970;-73
2021/11/03 05:16:53;;;;;;;61.47;34.80;;;6.60;99.90;;;;;;5126882;27;38861;-73
2021/11/03 05:19:27;;;;;;;26.57;22.87;;;6.60;99.90;;;;;;5131317;27;38308;-73
2021/11/03 05:21:55;;;;;;;48.87;28.73;;;6.70;99.90;;;;;;5134571;27;38725;-72
2021/11/03 05:24:21;;;;;;;25.07;21.90;;;6.60;99.90;;;;;;5110691;27;38602;-73
2021/11/03 05:26:48;;;;;;;24.10;19.53;;;6.70;99.90;;;;;;5131783;27;38830;-72
2021/11/03 05:29:14;;;;;;;24.87;20.97;;;6.70;99.90;;;;;;5132142;27;37923;-73
2021/11/03 05:31:40;;;;;;;28.50;21.77;;;6.60;99.90;;;;;;5136451;27;37713;-73
2021/11/03 05:34:06;;;;;;;22.27;18.63;;;6.60;99.90;;;;;;5134478;27;38823;-75
2021/11/03 05:36:33;;;;;;;30.87;22.07;;;6.60;99.90;;;;;;5123958;27;39298;-74
2021/11/03 05:39:02;;;;;;;24.17;20.53;;;6.50;99.90;;;;;;5123535;27;39900;-74
2021/11/03 05:41:28;;;;;;;47.60;22.30;;;6.50;99.90;;;;;;5131628;27;48437;-74
2021/11/03 05:43:55;;;;;;;48.27;26.97;;;6.50;99.90;;;;;;5133141;27;37510;-74
2021/11/03 05:46:34;;;;;;;33.63;21.80;;;6.50;99.90;;;;;;5109866;27;39314;-75
2021/11/03 05:49:03;;;;;;;26.57;20.40;;;6.50;99.90;;;;;;5111244;27;39649;-74
2021/11/03 05:51:29;;;;;;;18.87;16.90;;;6.50;99.90;;;;;;5109359;27;47317;-74
2021/11/03 05:53:55;;;;;;;21.77;17.70;;;6.50;99.90;;;;;;5111754;27;37555;-73
2021/11/03 05:56:21;;;;;;;19.27;17.10;;;6.40;99.90;;;;;;5111733;27;37337;-74
2021/11/03 05:58:48;;;;;;;34.03;18.13;;;6.40;99.90;;;;;;5137751;27;38023;-74
2021/11/03 06:01:14;;;;;;;19.57;16.43;;;6.40;99.90;;;;;;5123342;27;36712;-74
2021/11/03 06:03:40;;;;;;;40.50;18.60;;;6.40;99.90;;;;;;5118381;27;40300;-74
2021/11/03 06:06:06;;;;;;;24.90;17.97;;;6.40;99.90;;;;;;5126549;27;37140;-74
2021/11/03 06:08:32;;;;;;;33.47;17.37;;;6.30;99.90;;;;;;5140694;27;36849;-74
2021/11/03 06:11:02;;;;;;;19.47;16.67;;;6.30;99.90;;;;;;5117510;27;36718;-75
2021/11/03 06:13:28;;;;;;;30.57;23.13;;;6.30;99.90;;;;;;5140450;27;47330;-74
2021/11/03 06:15:56;;;;;;;75.50;28.63;;;6.20;99.90;;;;;;5154826;27;38380;-74
2021/11/03 06:18:22;;;;;;;41.73;26.93;;;6.20;99.90;;;;;;5133630;27;36792;-74
2021/11/03 06:20:49;;;;;;;38.90;26.17;;;6.20;99.90;;;;;;5135033;27;37294;-74
2021/11/03 06:23:15;;;;;;;31.40;24.57;;;6.10;99.90;;;;;;5135819;27;40350;-74
2021/11/03 06:25:42;;;;;;;24.47;21.10;;;6.00;99.90;;;;;;5137364;27;37465;-74
2021/11/03 06:28:09;;;;;;;44.83;27.10;;;6.00;99.90;;;;;;5156777;27;38421;-74
2021/11/03 06:30:37;;;;;;;22.07;19.67;;;5.90;99.90;;;;;;5154604;27;37383;-74
2021/11/03 06:33:05;;;;;;;20.43;18.07;;;5.80;99.90;;;;;;5124911;27;39183;-74
2021/11/03 06:35:34;;;;;;;35.60;24.10;;;5.70;99.90;;;;;;5140677;27;38633;-74
2021/11/03 06:38:00;;;;;;;37.07;23.60;;;5.70;99.90;;;;;;5142854;27;38174;-74
2021/11/03 06:40:27;;;;;;;29.37;22.07;;;5.70;99.90;;;;;;5120016;27;46768;-73
2021/11/03 06:42:53;;;;;;;56.57;29.30;;;5.60;99.90;;;;;;5121817;27;38319;-73
2021/11/03 06:45:21;;;;;;;32.50;21.60;;;5.50;99.90;;;;;;5118064;27;38600;-72
2021/11/03 06:47:48;;;;;;;42.73;26.47;;;5.50;99.90;;;;;;5130744;27;39410;-73
2021/11/03 06:50:17;;;;;;;24.73;19.27;;;5.50;99.90;;;;;;5138695;27;37209;-73
2021/11/03 06:52:46;;;;;;;26.33;20.17;;;5.40;99.90;;;;;;5134976;27;38828;-72
2021/11/03 06:55:12;;;;;;;23.53;19.43;;;5.50;99.90;;;;;;5135287;27;38297;-73
2021/11/03 06:57:38;;;;;;;40.63;25.13;;;5.50;99.90;;;;;;5142718;27;38763;-72
2021/11/03 07:00:07;;;;;;;23.80;18.63;;;5.50;99.90;;;;;;5131196;27;37735;-73
2021/11/03 07:02:33;;;;;;;30.47;21.80;;;5.40;99.90;;;;;;5136558;27;46703;-73
2021/11/03 07:05:00;;;;;;;44.40;25.37;;;5.30;99.90;;;;;;5135662;27;37393;-73
2021/11/03 07:07:26;;;;;;;31.80;23.30;;;5.30;99.90;;;;;;5128973;27;38503;-73
2021/11/03 07:09:52;;;;;;;19.60;16.57;;;5.30;99.90;;;;;;5133597;27;37303;-72
2021/11/03 07:12:18;;;;;;;32.67;24.43;;;5.30;99.90;;;;;;5130367;27;38922;-73
2021/11/03 07:14:44;;;;;;;26.17;21.43;;;5.30;99.90;;;;;;5130826;27;38691;-73
2021/11/03 07:17:12;;;;;;;24.40;19.23;;;5.20;99.90;;;;;;5130204;27;38189;-73
2021/11/03 07:19:39;;;;;;;25.50;21.13;;;5.20;99.90;;;;;;5134863;27;36272;-73
2021/11/03 07:22:06;;;;;;;29.67;21.80;;;5.20;99.90;;;;;;5136334;27;39638;-73
2021/11/03 07:24:32;;;;;;;19.93;16.87;;;5.20;99.90;;;;;;5133669;27;38297;-73
2021/11/03 07:26:59;;;;;;;22.27;18.80;;;5.20;99.90;;;;;;5132837;27;38244;-73
2021/11/03 07:29:25;;;;;;;28.60;20.77;;;5.30;99.90;;;;;;5134717;27;37151;-73
2021/11/03 07:31:51;;;;;;;35.90;23.67;;;5.40;99.90;;;;;;5147993;27;38850;-73
2021/11/03 07:34:17;;;;;;;32.87;24.10;;;5.30;99.90;;;;;;5129543;27;38989;-73
2021/11/03 07:36:43;;;;;;;22.90;19.23;;;5.30;99.90;;;;;;5123579;27;38566;-73
2021/11/03 07:39:09;;;;;;;20.37;17.47;;;5.30;99.90;;;;;;5131007;27;37661;-72
2021/11/03 07:41:36;;;;;;;35.60;25.20;;;5.20;99.90;;;;;;5144477;27;38835;-72
2021/11/03 07:44:04;;;;;;;21.63;17.57;;;5.20;99.90;;;;;;5147706;27;38356;-72
2021/11/03 07:46:31;;;;;;;20.33;17.27;;;5.20;99.90;;;;;;5152917;27;37946;-71
2021/11/03 07:48:57;;;;;;;32.30;23.63;;;5.20;99.90;;;;;;5114305;27;38901;-73
2021/11/03 07:51:25;;;;;;;36.27;22.93;;;5.20;99.90;;;;;;5114943;27;38926;-72
2021/11/03 07:53:51;;;;;;;34.83;25.53;;;5.20;99.90;;;;;;5119535;27;40341;-71
2021/11/03 07:56:22;;;;;;;66.17;25.77;;;5.20;99.90;;;;;;5114668;27;37967;-73
2021/11/03 07:58:50;;;;;;;57.53;26.80;;;5.30;99.90;;;;;;5116319;27;36799;-73
2021/11/03 08:01:16;;;;;;;124.97;42.50;;;5.40;99.90;;;;;;5128298;27;38955;-73
2021/11/03 08:03:42;;;;;;;42.47;26.37;;;5.50;99.90;;;;;;5130084;27;39475;-73
2021/11/03 08:06:10;;;;;;;51.33;29.60;;;5.60;99.90;;;;;;5133969;27;39735;-73
2021/11/03 08:08:43;;;;;;;101.73;39.30;;;5.70;99.90;;;;;;5129850;27;38577;-72
2021/11/03 08:11:12;;;;;;;87.23;35.80;;;5.80;99.90;;;;;;5115284;27;38196;-72
2021/11/03 08:13:38;;;;;;;66.17;34.80;;;5.90;99.90;;;;;;5150719;27;41793;-72
2021/11/03 08:16:05;;;;;;;51.87;32.77;;;6.00;99.90;;;;;;5132306;27;36864;-72
2021/11/03 08:18:44;;;;;;;51.33;32.03;;;6.10;99.90;;;;;;5151690;27;38454;-72
2021/11/03 08:21:13;;;;;;;41.60;30.97;;;6.10;99.90;;;;;;5151150;27;38566;-73
2021/11/03 08:23:39;;;;;;;41.87;30.37;;;6.20;99.90;;;;;;5145691;27;37965;-71
2021/11/03 08:26:06;;;;;;;33.27;27.33;;;6.20;99.90;;;;;;5154642;27;38864;-71
2021/11/03 08:28:32;;;;;;;26.80;21.97;;;6.30;99.90;;;;;;5130319;27;36724;-73
2021/11/03 08:31:00;;;;;;;28.87;23.20;;;6.30;99.90;;;;;;5148746;27;39073;-73
2021/11/03 08:33:32;;;;;;;79.53;36.60;;;6.40;99.90;;;;;;5146187;27;38456;-71
2021/11/03 08:35:59;;;;;;;123.23;36.97;;;6.40;99.90;;;;;;5153725;27;38923;-71
2021/11/03 08:38:26;;;;;;;33.23;22.77;;;6.50;99.90;;;;;;5126876;27;36146;-71
2021/11/03 08:40:52;;;;;;;28.93;24.37;;;6.60;99.90;;;;;;5128931;27;37323;-73
2021/11/03 08:43:23;;;;;;;173.10;55.43;;;6.60;99.90;;;;;;5149501;27;38126;-72
2021/11/03 08:45:51;;;;;;;47.67;32.63;;;6.80;99.90;;;;;;5155521;27;37947;-70
2021/11/03 08:48:19;;;;;;;119.40;46.57;;;7.00;99.90;;;;;;5152128;27;38579;-71
2021/11/03 08:50:46;;;;;;;29.53;25.67;;;7.10;99.90;;;;;;5132150;27;40586;-71
2021/11/03 08:53:14;;;;;;;37.17;25.43;;;7.20;99.90;;;;;;5153377;27;39329;-71
2021/11/03 08:55:42;;;;;;;42.40;27.13;;;7.20;99.90;;;;;;5131057;27;36992;-71
2021/11/03 08:58:11;;;;;;;41.67;24.63;;;7.30;99.90;;;;;;5148488;27;37519;-71
2021/11/03 09:00:38;;;;;;;34.77;24.37;;;7.30;99.90;;;;;;5147339;27;39549;-73
2021/11/03 09:03:07;;;;;;;49.77;29.30;;;7.30;99.90;;;;;;5131936;27;21632;-71
2021/11/03 09:05:33;;;;;;;41.73;31.83;;;7.40;99.90;;;;;;5150597;27;38992;-70
2021/11/03 09:08:01;;;;;;;59.23;37.60;;;7.50;99.90;;;;;;5153352;27;37258;-70
2021/11/03 09:10:30;;;;;;;73.00;38.50;;;7.60;99.90;;;;;;5136910;27;38969;-70
2021/11/03 09:12:56;;;;;;;36.83;26.63;;;7.70;99.90;;;;;;5134034;27;38536;-71
2021/11/03 09:15:23;;;;;;;141.43;52.00;;;7.80;99.90;;;;;;5140496;27;37094;-72
2021/11/03 09:17:49;;;;;;;47.97;33.97;;;8.00;99.90;;;;;;5156316;27;38693;-71
2021/11/03 09:20:17;;;;;;;65.57;38.57;;;8.10;99.90;;;;;;5131509;27;40422;-71
2021/11/03 09:22:43;;;;;;;28.37;24.27;;;8.20;99.90;;;;;;5154034;27;37245;-72
2021/11/03 09:25:14;;;;;;;43.20;31.77;;;8.20;99.90;;;;;;5145434;27;38142;-71
2021/11/03 09:27:41;;;;;;;44.27;33.80;;;8.30;99.90;;;;;;5154368;27;37363;-71
2021/11/03 09:30:10;;;;;;;31.47;25.93;;;8.30;99.90;;;;;;5153859;27;38694;-73
2021/11/03 09:32:39;;;;;;;64.67;36.13;;;8.40;99.90;;;;;;5132192;27;38375;-71
2021/11/03 09:35:05;;;;;;;37.50;30.23;;;8.30;99.90;;;;;;5150343;27;40049;-72
2021/11/03 09:37:33;;;;;;;52.17;31.20;;;8.40;99.90;;;;;;5131634;27;47518;-70
2021/11/03 09:39:59;;;;;;;30.87;24.87;;;8.30;99.90;;;;;;5152952;27;39640;-70
2021/11/03 09:42:26;;;;;;;31.30;26.03;;;8.40;99.90;;;;;;5155046;27;38551;-70
2021/11/03 09:44:55;;;;;;;28.17;23.77;;;8.40;99.90;;;;;;5135938;27;37861;-71
2021/11/03 09:47:32;;;;;;;44.77;34.20;;;8.50;99.90;;;;;;5154559;27;37906;-72
2021/11/03 09:50:00;;;;;;;32.53;27.27;;;8.60;99.90;;;;;;5151656;27;38731;-72
2021/11/03 09:52:37;;;;;;;30.77;25.07;;;8.60;99.90;;;;;;5150701;27;38497;-73
2021/11/03 09:55:23;;;;;;;31.60;26.73;;;8.60;99.90;;;;;;5134563;27;38362;-72
2021/11/03 09:58:09;;;;;;;34.73;27.40;;;8.70;99.90;;;;;;5140422;27;47324;-72
2021/11/03 10:00:46;;;;;;;40.47;31.70;;;8.80;99.90;;;;;;5138556;27;47797;-72
2021/11/03 10:03:34;;;;;;;77.60;46.53;;;8.70;99.90;;;;;;5144788;27;37457;-72
2021/11/03 10:06:21;;;;;;;46.30;33.50;;;8.80;99.90;;;;;;5146487;27;37770;-72
2021/11/03 10:08:50;;;;;;;61.97;39.37;;;8.80;99.90;;;;;;5137528;27;47253;-72
2021/11/03 10:11:27;;;;;;;50.90;32.50;;;8.90;99.90;;;;;;5156240;27;38941;-72
2021/11/03 10:13:58;;;;;;;40.97;31.37;;;8.90;99.90;;;;;;5130219;27;37645;-70
2021/11/03 10:16:47;;;;;;;97.37;49.23;;;8.90;99.90;;;;;;5154120;27;38625;-70
2021/11/03 10:19:16;;;;;;;73.00;44.97;;;9.00;99.90;;;;;;5144979;27;36931;-70
2021/11/03 10:21:53;;;;;;;44.83;32.83;;;9.10;99.90;;;;;;5161080;27;39194;-71
2021/11/03 10:24:32;;;;;;;71.37;44.07;;;9.20;99.90;;;;;;5162660;27;38503;-71
2021/11/03 10:27:00;;;;;;;73.67;47.47;;;9.20;99.90;;;;;;5164966;27;38088;-70
2021/11/03 10:29:47;;;;;;;79.90;50.07;;;9.30;99.90;;;;;;5128813;27;37290;-70
2021/11/03 10:32:35;;;;;;;67.33;45.90;;;9.40;99.90;;;;;;5138653;27;39340;-71
2021/11/03 10:35:20;;;;;;;55.50;39.70;;;9.50;99.90;;;;;;5155837;27;38625;-70
2021/11/03 10:37:50;;;;;;;66.33;44.83;;;9.50;99.90;;;;;;5128816;27;47207;-71
2021/11/03 10:40:31;;;;;;;64.17;44.53;;;9.50;99.90;;;;;;5135263;27;36581;-71
2021/11/03 10:43:01;;;;;;;80.63;52.40;;;9.60;99.90;;;;;;5141481;27;38933;-70
2021/11/03 10:45:33;;;;;;;88.27;54.90;;;9.50;99.90;;;;;;5148014;27;48009;-70
2021/11/03 10:48:23;;;;;;;73.07;49.60;;;9.60;99.90;;;;;;5149644;27;37863;-71
2021/11/03 10:50:55;;;;;;;75.77;49.00;;;9.70;99.90;;;;;;5160370;27;48609;-72
2021/11/03 10:53:37;;;;;;;91.93;59.15;;;9.80;99.90;;;;;;5136198;27;38110;-72
2021/11/03 10:56:12;;;;;;;66.27;48.20;;;9.90;99.90;;;;;;5146532;27;38107;-71
2021/11/03 10:58:50;;;;;;;65.23;47.10;;;10.00;99.90;;;;;;5139773;27;38171;-71
2021/11/03 11:01:45;;;;;;;74.37;50.67;;;10.10;99.90;;;;;;5155518;27;38544;-71
2021/11/03 11:04:34;;;;;;;68.47;49.67;;;10.30;99.90;;;;;;5132089;27;38097;-72
2021/11/03 11:07:19;;;;;;;72.13;50.50;;;10.40;99.90;;;;;;5165197;27;38902;-73
2021/11/03 11:09:56;;;;;;;58.23;43.20;;;10.70;99.90;;;;;;5131446;27;47714;-74
2021/11/03 11:12:28;;;;;;;49.40;39.00;;;10.80;99.90;;;;;;5134009;27;36300;-74
2021/11/03 11:15:15;;;;;;;65.13;46.40;;;11.00;99.90;;;;;;5136101;27;39723;-74
2021/11/03 11:17:52;;;;;;;55.90;40.00;;;11.20;99.90;;;;;;5157953;27;48938;-73
2021/11/03 11:20:29;;;;;;;47.37;36.97;;;11.40;99.90;;;;;;5143108;27;38425;-74
2021/11/03 11:22:59;;;;;;;51.17;35.40;;;11.40;99.90;;;;;;5151515;27;38232;-74
2021/11/03 11:25:49;;;;;;;42.83;31.30;;;11.50;99.90;;;;;;5138726;27;40449;-74
2021/11/03 11:28:53;;;;;;;38.73;30.20;;;11.60;99.90;;;;;;5153238;27;38203;-73
2021/11/03 11:31:44;;;;;;;37.67;28.40;;;11.80;99.90;;;;;;5157343;27;38000;-74
2021/11/03 11:34:39;;;;;;;29.83;22.97;;;12.10;99.90;;;;;;5162305;27;38441;-73
2021/11/03 11:37:19;;;;;;;33.37;26.53;;;12.20;99.90;;;;;;5147880;27;38658;-74
2021/11/03 11:40:02;;;;;;;41.17;28.80;;;12.40;99.90;;;;;;5143521;27;38488;-74
2021/11/03 11:43:14;;;;;;;32.47;24.40;;;12.70;99.90;;;;;;5136299;27;46982;-74
2021/11/03 11:45:41;;;;;;;20.53;15.60;;;12.90;99.90;;;;;;5148255;27;48746;-73
2021/11/03 11:48:32;;;;;;;20.30;15.45;;;13.10;99.90;;;;;;5158455;27;39628;-74
2021/11/03 11:51:08;;;;;;;15.95;11.70;;;13.20;99.90;;;;;;5163808;27;38381;-74
2021/11/03 11:53:52;;;;;;;11.57;10.07;;;13.20;99.90;;;;;;5159631;27;49061;-74
2021/11/03 11:56:36;;;;;;;12.40;9.97;;;13.20;99.90;;;;;;5140544;27;39470;-74
2021/11/03 11:59:07;;;;;;;13.25;10.00;;;13.20;99.90;;;;;;5164554;27;38701;-74
2021/11/03 12:01:38;;;;;;;11.85;7.78;;;13.40;99.90;;;;;;5155963;27;38469;-73
2021/11/03 12:04:04;;;;;;;15.13;11.17;;;13.40;99.90;;;;;;5157955;27;37867;-74
2021/11/03 12:06:36;;;;;;;11.90;8.13;;;13.50;99.90;;;;;;5142067;27;37816;-73
2021/11/03 12:10:01;;;;;;;8.80;5.38;;;13.40;99.90;;;;;;5158008;27;38432;-73
2021/11/03 12:12:27;;;;;;;9.48;5.00;;;13.80;99.90;;;;;;5117778;27;47790;-73
2021/11/03 12:14:57;;;;;;;13.63;5.40;;;13.90;99.90;;;;;;5149260;27;39065;-74
2021/11/03 12:17:56;;;;;;;8.38;3.78;;;14.00;99.90;;;;;;5145280;27;36926;-73
2021/11/03 12:20:25;;;;;;;8.70;4.20;;;14.10;99.90;;;;;;5143248;27;38728;-73
2021/11/03 12:22:59;;;;;;;6.80;4.70;;;14.20;99.90;;;;;;5126131;27;37191;-72
2021/11/03 12:25:25;;;;;;;8.02;6.13;;;14.30;99.90;;;;;;5116987;27;36563;-72
2021/11/03 12:27:54;;;;;;;11.02;6.07;;;14.40;99.90;;;;;;5135880;27;36132;-71
2021/11/03 12:30:38;;;;;;;13.10;7.57;;;14.50;99.90;;;;;;5132268;27;38957;-75
2021/11/03 12:33:14;;;;;;;15.48;7.82;;;14.40;99.90;;;;;;5133662;27;38138;-73
2021/11/03 12:35:40;;;;;;;14.35;9.18;;;14.30;99.90;;;;;;5133598;27;38902;-72
2021/11/03 12:38:11;;;;;;;14.63;9.00;;;14.20;99.90;;;;;;5141116;27;38243;-72
2021/11/03 12:40:44;;;;;;;10.98;8.75;;;14.20;99.90;;;;;;5115195;27;41061;-72
2021/11/03 12:43:24;;;;;;;14.40;9.98;;;14.20;99.90;;;;;;5132332;27;38420;-74
2021/11/03 12:45:50;;;;;;;13.27;9.85;;;14.10;99.90;;;;;;5130638;27;38530;-70
2021/11/03 12:48:26;;;;;;;10.45;8.10;;;14.10;99.90;;;;;;5135524;27;38409;-72
2021/11/03 12:50:53;;;;;;;10.50;7.80;;;14.00;99.90;;;;;;5132396;27;39737;-71